Time;durP1;ratioP1;P1;durP2;ratioP2;P2;SDS_P1;SDS_P2;PMS_P1;PMS_P2;Temp;Humidity;BMP_temperature;BMP_pressure;BME280_temperature;BME280_humidity;BME280_pressure;Samples;Min_cycle;Max_cycle;Signal;HPM_P1;HPM_P2
2021/07/23 00:02:04;;;;;;;17.00;7.45;;;27.00;47.80;;;;;;6331795;28;20032;-77
2021/07/23 00:05:06;;;;;;;15.40;7.88;;;27.00;48.00;;;;;;6332600;28;20032;-77
2021/07/23 00:08:07;;;;;;;15.18;7.63;;;26.90;48.20;;;;;;6332213;28;20506;-77
2021/07/23 00:11:08;;;;;;;18.63;7.88;;;26.90;48.60;;;;;;6331616;28;20067;-76
2021/07/23 00:14:09;;;;;;;15.00;7.80;;;26.80;48.70;;;;;;6331978;28;20035;-77
2021/07/23 00:17:10;;;;;;;18.85;7.45;;;26.80;48.90;;;;;;6349813;28;20035;-77
2021/07/23 00:20:11;;;;;;;17.00;7.03;;;26.70;49.00;;;;;;6348744;28;20457;-77
2021/07/23 00:23:12;;;;;;;16.80;7.13;;;26.70;49.00;;;;;;6330712;28;20043;-77
2021/07/23 00:26:13;;;;;;;18.70;7.20;;;26.70;49.10;;;;;;6323000;28;20047;-77
2021/07/23 00:29:14;;;;;;;15.95;7.30;;;26.60;49.30;;;;;;6306644;28;20043;-77
2021/07/23 00:32:15;;;;;;;13.50;7.65;;;26.60;49.30;;;;;;6322589;28;20056;-77
2021/07/23 00:35:17;;;;;;;17.13;7.60;;;26.50;49.30;;;;;;6323219;28;20040;-77
2021/07/23 00:38:18;;;;;;;18.25;7.70;;;26.50;49.40;;;;;;6321347;28;20092;-77
2021/07/23 00:41:22;;;;;;;19.00;7.93;;;26.40;49.40;;;;;;6323044;28;20416;-77
2021/07/23 00:44:23;;;;;;;22.48;7.18;;;26.40;49.30;;;;;;6323463;28;20032;-77
2021/07/23 00:47:25;;;;;;;16.65;7.15;;;26.30;49.30;;;;;;6324092;28;20115;-77
2021/07/23 00:50:28;;;;;;;15.68;7.32;;;26.20;49.40;;;;;;6323554;28;20039;-77
2021/07/23 00:53:30;;;;;;;17.52;7.43;;;26.20;49.60;;;;;;6297600;28;20473;-77
2021/07/23 00:56:32;;;;;;;15.70;7.75;;;26.10;49.80;;;;;;6297718;28;20089;-76
2021/07/23 00:59:33;;;;;;;15.02;7.35;;;26.00;49.60;;;;;;6299238;28;20048;-77
2021/07/23 01:02:35;;;;;;;19.25;7.05;;;26.00;49.50;;;;;;6322304;28;20048;-77
2021/07/23 01:05:37;;;;;;;15.13;7.00;;;25.90;49.60;;;;;;6323068;28;20089;-78
2021/07/23 01:08:42;;;;;;;18.40;7.47;;;25.90;49.70;;;;;;6321874;28;20048;-77
2021/07/23 01:11:43;;;;;;;16.90;7.00;;;25.80;49.80;;;;;;6323003;28;20350;-77
2021/07/23 01:15:00;;;;;;;20.10;6.82;;;25.80;50.00;;;;;;6320654;28;20101;-77
2021/07/23 01:18:01;;;;;;;12.65;6.78;;;25.80;50.00;;;;;;6304507;28;20346;-77
2021/07/23 01:21:03;;;;;;;13.93;6.60;;;25.70;50.00;;;;;;6304335;28;20028;-77
2021/07/23 01:24:05;;;;;;;13.45;6.75;;;25.70;49.90;;;;;;6318759;28;20109;-77
2021/07/23 01:27:19;;;;;;;18.85;8.02;;;25.70;49.90;;;;;;6326429;28;20040;-77
2021/07/23 01:30:36;;;;;;;22.08;7.65;;;25.70;50.00;;;;;;6321285;28;20040;-77
2021/07/23 01:33:47;;;;;;;16.08;6.70;;;25.60;50.00;;;;;;6325655;28;20063;-77
2021/07/23 01:36:48;;;;;;;16.27;7.20;;;25.60;50.50;;;;;;6326661;28;20369;-77
2021/07/23 01:39:50;;;;;;;18.02;7.97;;;25.50;49.90;;;;;;6326379;28;20445;-77
2021/07/23 01:42:52;;;;;;;17.75;7.30;;;25.50;49.90;;;;;;6326096;28;20081;-77
2021/07/23 01:45:56;;;;;;;17.02;7.45;;;25.50;49.90;;;;;;6308747;28;20043;-77
2021/07/23 01:49:16;;;;;;;16.98;6.47;;;25.50;49.90;;;;;;6325111;28;20048;-77
2021/07/23 01:52:17;;;;;;;20.13;8.02;;;25.50;49.90;;;;;;6325379;28;20415;-79
2021/07/23 01:55:21;;;;;;;15.35;6.68;;;25.40;49.80;;;;;;6325491;28;20043;-78
2021/07/23 01:58:22;;;;;;;15.60;6.05;;;25.40;49.70;;;;;;6325498;28;20040;-78
2021/07/23 02:01:24;;;;;;;18.05;6.75;;;25.40;49.70;;;;;;6317814;28;20043;-78
2021/07/23 02:04:39;;;;;;;15.77;6.93;;;25.30;49.70;;;;;;6310065;28;20498;-77
2021/07/23 02:07:40;;;;;;;16.55;6.70;;;25.30;49.80;;;;;;6325402;28;20487;-78
2021/07/23 02:10:44;;;;;;;24.73;6.63;;;25.20;49.80;;;;;;6308491;28;20153;-78
2021/07/23 02:13:47;;;;;;;14.75;7.28;;;25.30;49.90;;;;;;6323732;28;20353;-78
2021/07/23 02:16:49;;;;;;;16.00;7.35;;;25.20;49.80;;;;;;6308644;28;20057;-78
2021/07/23 02:19:51;;;;;;;16.95;7.03;;;25.20;49.90;;;;;;6324907;28;20032;-78
2021/07/23 02:22:55;;;;;;;15.30;7.05;;;25.30;50.00;;;;;;6307118;28;20314;-77
2021/07/23 02:26:23;;;;;;;15.25;7.07;;;25.20;50.00;;;;;;6343978;28;20128;-78
2021/07/23 02:29:26;;;;;;;21.40;7.93;;;25.30;49.90;;;;;;6317850;28;20488;-77
2021/07/23 02:32:28;;;;;;;16.92;7.13;;;25.20;49.70;;;;;;6333572;28;20065;-78
2021/07/23 02:35:29;;;;;;;13.88;6.75;;;25.20;49.60;;;;;;6334423;28;20376;-78
2021/07/23 02:38:30;;;;;;;18.85;7.53;;;25.20;49.70;;;;;;6317295;28;20063;-78
2021/07/23 02:41:36;;;;;;;16.00;6.60;;;24.90;49.70;;;;;;6334192;28;20097;-77
2021/07/23 02:44:38;;;;;;;13.75;6.10;;;25.10;49.80;;;;;;6333419;28;20031;-78
2021/07/23 02:47:40;;;;;;;17.02;7.32;;;25.00;49.80;;;;;;6317784;28;20043;-78
2021/07/23 02:50:42;;;;;;;16.38;7.10;;;25.10;49.90;;;;;;6333814;28;20064;-78
2021/07/23 02:53:44;;;;;;;15.93;7.15;;;25.00;49.90;;;;;;6334308;28;20046;-78
2021/07/23 02:56:45;;;;;;;17.83;8.13;;;25.10;49.90;;;;;;6333706;28;20036;-77
2021/07/23 02:59:46;;;;;;;17.15;7.15;;;25.10;49.90;;;;;;6317133;28;20036;-78
2021/07/23 03:02:48;;;;;;;16.02;7.50;;;25.10;49.90;;;;;;6350412;28;20039;-78
2021/07/23 03:05:49;;;;;;;17.85;7.05;;;25.00;50.00;;;;;;6316935;28;20043;-78
2021/07/23 03:09:02;;;;;;;17.23;7.60;;;25.00;50.20;;;;;;6316911;28;20031;-78
2021/07/23 03:12:03;;;;;;;20.10;7.40;;;25.00;50.40;;;;;;6332260;28;20415;-77
2021/07/23 03:15:08;;;;;;;17.70;6.82;;;25.00;50.60;;;;;;6316240;28;20055;-78
2021/07/23 03:18:09;;;;;;;17.02;7.25;;;25.00;50.70;;;;;;6315443;28;20036;-78
2021/07/23 03:21:11;;;;;;;17.33;7.38;;;25.00;50.70;;;;;;6331860;28;20062;-78
2021/07/23 03:24:13;;;;;;;15.25;6.85;;;25.00;50.80;;;;;;6331622;28;20035;-78
2021/07/23 03:27:15;;;;;;;18.50;7.43;;;25.00;50.90;;;;;;6331575;28;20361;-78
2021/07/23 03:30:37;;;;;;;13.93;7.22;;;25.00;50.90;;;;;;6347069;28;20353;-77
2021/07/23 03:33:41;;;;;;;19.02;7.07;;;25.00;50.90;;;;;;6305873;28;20036;-77
2021/07/23 03:36:43;;;;;;;17.25;7.32;;;25.00;51.20;;;;;;6305679;28;20044;-77
2021/07/23 03:39:48;;;;;;;19.02;7.88;;;25.00;51.60;;;;;;6305375;28;20039;-77
2021/07/23 03:42:53;;;;;;;21.40;7.47;;;24.90;51.90;;;;;;6305125;28;20051;-77
2021/07/23 03:45:59;;;;;;;17.17;7.13;;;24.80;52.20;;;;;;6288882;28;20035;-78
2021/07/23 03:49:02;;;;;;;15.30;7.60;;;24.80;52.30;;;;;;6304552;28;20024;-79
2021/07/23 03:52:14;;;;;;;23.45;7.55;;;24.80;52.40;;;;;;6304396;28;20047;-77
2021/07/23 03:55:35;;;;;;;17.45;7.22;;;24.70;52.30;;;;;;6321951;28;20043;-77
2021/07/23 03:58:36;;;;;;;16.25;7.85;;;24.70;52.40;;;;;;6303862;28;20032;-79
2021/07/23 04:01:40;;;;;;;18.85;7.18;;;24.60;52.70;;;;;;6302556;28;20472;-77
2021/07/23 04:04:41;;;;;;;21.58;7.28;;;24.60;52.90;;;;;;6312570;28;20111;-78
2021/07/23 04:07:51;;;;;;;20.23;7.13;;;24.50;53.20;;;;;;6331455;28;20118;-78
2021/07/23 04:10:54;;;;;;;13.85;6.97;;;24.50;53.40;;;;;;6356395;28;20039;-77
2021/07/23 04:13:56;;;;;;;17.00;7.88;;;24.50;53.40;;;;;;6337828;28;20032;-77
2021/07/23 04:16:58;;;;;;;14.75;7.55;;;24.40;53.50;;;;;;6361670;28;20035;-77
2021/07/23 04:19:59;;;;;;;16.45;6.63;;;24.40;53.60;;;;;;6346973;28;20047;-77
2021/07/23 04:23:01;;;;;;;15.50;6.93;;;24.40;53.60;;;;;;6332519;28;20038;-78
2021/07/23 04:26:04;;;;;;;18.17;6.55;;;24.40;53.50;;;;;;6330077;28;20460;-78
2021/07/23 04:29:07;;;;;;;16.17;7.18;;;24.40;53.40;;;;;;6312433;28;20040;-78
2021/07/23 04:32:09;;;;;;;20.02;7.38;;;24.30;53.30;;;;;;6329689;28;20031;-78
2021/07/23 04:35:10;;;;;;;16.30;7.45;;;24.30;53.20;;;;;;6330327;28;20580;-78
2021/07/23 04:38:12;;;;;;;15.23;7.85;;;24.30;53.20;;;;;;6330127;28;20024;-78
2021/07/23 04:41:18;;;;;;;15.00;6.93;;;24.30;53.30;;;;;;6330139;28;20027;-77
2021/07/23 04:44:24;;;;;;;16.85;6.65;;;24.30;53.10;;;;;;6330043;28;20038;-77
2021/07/23 04:47:33;;;;;;;15.33;7.03;;;24.20;53.00;;;;;;6330898;28;20051;-78
2021/07/23 04:50:36;;;;;;;18.58;7.00;;;24.20;53.00;;;;;;6306067;28;20691;-78
2021/07/23 04:54:03;;;;;;;15.07;7.40;;;24.20;53.10;;;;;;6346995;28;20040;-78
2021/07/23 04:57:29;;;;;;;15.57;6.63;;;24.20;53.20;;;;;;6344054;28;20044;-78
2021/07/23 05:00:33;;;;;;;19.58;7.30;;;24.20;53.10;;;;;;6328865;28;20035;-78
2021/07/23 05:03:38;;;;;;;21.92;7.82;;;24.10;53.10;;;;;;6344969;28;20120;-78
2021/07/23 05:06:40;;;;;;;17.90;7.07;;;24.10;53.30;;;;;;6329920;28;20453;-77
2021/07/23 05:09:41;;;;;;;17.60;7.80;;;24.10;53.40;;;;;;6308031;28;20054;-76
2021/07/23 05:12:45;;;;;;;21.05;7.40;;;24.00;53.20;;;;;;6291117;28;20545;-77
2021/07/23 05:15:46;;;;;;;15.90;7.40;;;24.00;53.30;;;;;;6308116;28;20131;-76
2021/07/23 05:18:47;;;;;;;14.90;7.15;;;24.00;53.20;;;;;;6308610;28;20039;-78
2021/07/23 05:21:49;;;;;;;13.05;6.72;;;24.00;53.20;;;;;;6325081;28;20468;-76
2021/07/23 05:24:50;;;;;;;19.65;7.88;;;24.00;53.20;;;;;;6325003;28;20036;-76
2021/07/23 05:27:51;;;;;;;17.60;7.55;;;24.00;53.40;;;;;;6325635;28;20040;-76
2021/07/23 05:30:52;;;;;;;20.15;8.52;;;24.00;53.30;;;;;;6325483;28;20180;-76
2021/07/23 05:33:53;;;;;;;18.48;7.47;;;24.00;53.40;;;;;;6332956;28;20042;-76
2021/07/23 05:36:56;;;;;;;17.98;7.05;;;24.10;53.60;;;;;;6316056;28;20024;-78
2021/07/23 05:39:57;;;;;;;21.45;7.57;;;24.10;53.70;;;;;;6332806;28;20061;-78
2021/07/23 05:42:58;;;;;;;15.35;7.57;;;24.10;54.20;;;;;;6333272;28;20035;-78
2021/07/23 05:46:06;;;;;;;20.70;8.35;;;24.20;53.40;;;;;;6315570;28;20059;-77
2021/07/23 05:49:07;;;;;;;15.40;7.03;;;24.20;53.40;;;;;;6332100;28;20360;-78
2021/07/23 05:52:08;;;;;;;19.92;8.23;;;24.30;53.40;;;;;;6331641;28;20131;-76
2021/07/23 05:55:09;;;;;;;22.27;8.38;;;24.30;53.50;;;;;;6330553;28;20036;-76
2021/07/23 05:58:10;;;;;;;17.77;7.88;;;24.30;53.20;;;;;;6349944;28;20396;-77
2021/07/23 06:01:11;;;;;;;18.48;7.47;;;24.30;53.00;;;;;;6321361;28;20072;-77
2021/07/23 06:04:12;;;;;;;18.17;6.57;;;24.30;53.00;;;;;;6331835;28;20429;-77
2021/07/23 06:07:14;;;;;;;15.55;7.43;;;24.40;53.00;;;;;;6332192;28;20047;-77
2021/07/23 06:10:15;;;;;;;12.45;6.28;;;24.50;53.00;;;;;;6322030;28;20050;-77
2021/07/23 06:13:16;;;;;;;26.17;7.38;;;24.50;52.80;;;;;;6331972;28;20095;-77
2021/07/23 06:16:17;;;;;;;22.20;8.30;;;24.50;52.60;;;;;;6349532;28;20032;-76
2021/07/23 06:19:19;;;;;;;19.05;8.13;;;24.50;52.30;;;;;;6349510;28;20052;-77
2021/07/23 06:22:20;;;;;;;16.10;7.22;;;24.50;52.10;;;;;;6332036;28;20036;-77
2021/07/23 06:25:22;;;;;;;14.52;6.90;;;24.50;52.00;;;;;;6314308;28;20050;-77
2021/07/23 06:28:23;;;;;;;19.33;7.03;;;24.60;51.70;;;;;;6314761;28;20092;-76
2021/07/23 06:31:24;;;;;;;18.92;7.25;;;24.70;51.50;;;;;;6348755;28;20376;-77
2021/07/23 06:34:25;;;;;;;18.95;7.32;;;24.70;51.20;;;;;;6325882;28;20099;-76
2021/07/23 06:37:26;;;;;;;21.23;7.60;;;24.80;50.80;;;;;;6339893;28;20032;-77
2021/07/23 06:40:27;;;;;;;25.52;8.35;;;24.90;50.40;;;;;;6330023;28;20135;-77
2021/07/23 06:43:29;;;;;;;18.63;7.22;;;25.00;50.20;;;;;;6348829;28;20354;-77
2021/07/23 06:46:31;;;;;;;17.70;7.53;;;25.20;50.00;;;;;;6311693;28;20055;-78
2021/07/23 06:49:33;;;;;;;23.38;8.63;;;25.30;49.90;;;;;;6344539;28;20360;-78
2021/07/23 06:52:34;;;;;;;19.60;7.05;;;25.40;49.70;;;;;;6331394;28;20464;-78
2021/07/23 06:55:35;;;;;;;19.85;7.20;;;25.60;49.40;;;;;;6328554;28;20055;-78
2021/07/23 06:58:36;;;;;;;17.95;6.93;;;25.70;48.90;;;;;;6345682;28;20032;-75
2021/07/23 07:01:37;;;;;;;16.27;6.97;;;25.70;48.70;;;;;;6329297;28;20039;-77
2021/07/23 07:04:39;;;;;;;18.02;6.72;;;25.80;48.50;;;;;;6346181;28;20049;-78
2021/07/23 07:07:40;;;;;;;16.88;7.05;;;25.90;48.90;;;;;;6325492;28;20040;-79
2021/07/23 07:10:41;;;;;;;18.88;7.05;;;26.10;48.10;;;;;;6329205;28;20088;-81
2021/07/23 07:13:43;;;;;;;17.23;6.57;;;26.40;47.50;;;;;;6347716;28;20368;-78
2021/07/23 07:16:44;;;;;;;21.35;7.50;;;26.60;47.00;;;;;;6330005;28;20039;-79
2021/07/23 07:19:45;;;;;;;14.95;6.40;;;26.70;46.60;;;;;;6341458;28;20046;-79
2021/07/23 07:22:46;;;;;;;16.63;7.10;;;26.80;46.30;;;;;;6313419;28;20027;-79
2021/07/23 07:25:47;;;;;;;17.73;7.15;;;26.80;46.20;;;;;;6323277;28;20048;-79
2021/07/23 07:28:48;;;;;;;20.63;6.85;;;26.90;46.30;;;;;;6344058;28;20366;-79
2021/07/23 07:31:49;;;;;;;21.33;6.35;;;26.90;46.20;;;;;;6307178;28;20031;-80
2021/07/23 07:34:50;;;;;;;16.35;6.55;;;27.00;46.00;;;;;;6317794;28;20035;-81
2021/07/23 07:37:51;;;;;;;17.98;6.65;;;27.10;45.50;;;;;;6322605;28;20123;-81
2021/07/23 07:40:52;;;;;;;19.10;7.28;;;27.20;45.40;;;;;;6335893;28;20086;-81
2021/07/23 07:43:54;;;;;;;16.52;6.68;;;27.30;45.00;;;;;;6316631;28;20034;-82
2021/07/23 07:46:55;;;;;;;15.32;7.20;;;27.40;44.60;;;;;;6305787;28;20368;-78
2021/07/23 07:49:56;;;;;;;17.42;6.88;;;27.50;44.30;;;;;;6327729;28;20036;-81
2021/07/23 07:52:57;;;;;;;15.10;6.57;;;27.60;43.70;;;;;;6327580;28;20027;-83
2021/07/23 07:55:59;;;;;;;16.38;6.20;;;27.60;43.40;;;;;;6298033;28;20078;-81
2021/07/23 07:59:00;;;;;;;12.85;6.47;;;27.70;43.40;;;;;;6329996;28;20122;-83
2021/07/23 08:02:01;;;;;;;16.83;6.10;;;27.80;43.00;;;;;;6307741;28;20032;-81
2021/07/23 08:05:03;;;;;;;19.85;7.20;;;28.00;42.60;;;;;;6329958;28;20035;-82
2021/07/23 08:08:08;;;;;;;18.63;5.97;;;28.20;42.20;;;;;;6330825;28;20095;-82
2021/07/23 08:11:10;;;;;;;17.00;7.00;;;28.30;41.80;;;;;;6328701;28;20031;-81
2021/07/23 08:14:11;;;;;;;18.95;7.18;;;28.40;41.20;;;;;;6328568;28;20027;-78
2021/07/23 08:17:12;;;;;;;16.85;6.93;;;28.60;40.90;;;;;;6310442;28;20046;-80
2021/07/23 08:20:14;;;;;;;17.27;6.25;;;28.80;40.40;;;;;;6345721;28;20130;-80
2021/07/23 08:23:15;;;;;;;14.50;7.20;;;29.00;40.30;;;;;;6301738;28;20063;-81
2021/07/23 08:26:17;;;;;;;14.77;6.38;;;29.10;40.40;;;;;;6306253;28;20086;-81
2021/07/23 08:29:19;;;;;;;15.10;6.70;;;29.30;39.10;;;;;;6341148;28;20036;-81
2021/07/23 08:32:20;;;;;;;13.50;6.43;;;29.40;38.30;;;;;;6325727;28;20043;-81
2021/07/23 08:35:22;;;;;;;14.07;6.55;;;29.40;38.10;;;;;;6326740;28;20344;-81
2021/07/23 08:38:24;;;;;;;14.18;6.00;;;29.40;38.10;;;;;;6319094;28;20038;-78
2021/07/23 08:41:25;;;;;;;12.13;5.80;;;29.50;37.80;;;;;;6334482;28;20475;-79
2021/07/23 08:44:27;;;;;;;14.80;6.75;;;29.50;37.50;;;;;;6311839;28;20148;-80
2021/07/23 08:47:29;;;;;;;12.25;6.82;;;29.50;37.30;;;;;;6344375;28;20081;-80
2021/07/23 08:50:31;;;;;;;13.73;8.05;;;29.50;37.40;;;;;;6326315;28;20042;-79
2021/07/23 08:53:32;;;;;;;13.45;6.65;;;29.60;37.50;;;;;;6310817;28;20039;-80
2021/07/23 08:56:33;;;;;;;13.65;6.25;;;29.80;37.50;;;;;;6328912;28;20464;-80
2021/07/23 08:59:35;;;;;;;16.92;7.00;;;29.90;37.40;;;;;;6345383;28;20038;-81
2021/07/23 09:03:06;;;;;;;15.27;6.88;;;29.90;37.00;;;;;;6326638;28;20028;-81
2021/07/23 09:06:15;;;;;;;21.80;7.55;;;29.90;36.50;;;;;;6299712;28;20070;-80
2021/07/23 09:09:20;;;;;;;14.25;6.68;;;29.90;36.20;;;;;;6308234;28;20357;-80
2021/07/23 09:12:21;;;;;;;17.52;6.60;;;29.90;35.80;;;;;;6314909;28;20081;-80
2021/07/23 09:15:27;;;;;;;14.20;6.43;;;30.00;35.90;;;;;;6343282;28;20036;-80
2021/07/23 09:18:41;;;;;;;13.15;6.10;;;30.20;35.60;;;;;;6325485;28;20043;-80
2021/07/23 09:21:45;;;;;;;15.88;6.47;;;30.30;35.20;;;;;;6323812;28;20031;-83
2021/07/23 09:24:52;;;;;;;16.48;6.78;;;30.50;35.00;;;;;;6322822;28;20097;-81
2021/07/23 09:27:53;;;;;;;15.90;7.00;;;30.60;34.90;;;;;;6324223;28;20059;-81
2021/07/23 09:31:00;;;;;;;13.77;6.88;;;30.80;34.80;;;;;;6306800;28;20529;-81
2021/07/23 09:34:03;;;;;;;12.85;6.43;;;30.90;34.40;;;;;;6307794;28;20180;-80
2021/07/23 09:37:11;;;;;;;14.90;6.47;;;31.00;34.30;;;;;;6307723;28;20059;-80
2021/07/23 09:40:13;;;;;;;18.73;6.68;;;31.00;34.40;;;;;;6315801;28;20463;-80
2021/07/23 09:43:50;;;;;;;17.38;8.05;;;31.00;34.70;;;;;;6310029;28;20028;-79
2021/07/23 09:46:51;;;;;;;30.70;12.98;;;31.00;35.10;;;;;;6311970;28;20125;-79
2021/07/23 09:49:54;;;;;;;13.07;6.90;;;31.10;35.40;;;;;;6292993;28;20023;-80
2021/07/23 09:52:55;;;;;;;31.05;10.75;;;31.00;35.40;;;;;;6345911;28;20368;-80
2021/07/23 09:55:56;;;;;;;22.95;6.35;;;31.10;35.50;;;;;;6332370;28;20038;-79
2021/07/23 09:59:00;;;;;;;15.65;7.15;;;31.10;35.60;;;;;;6330996;28;20042;-79
2021/07/23 10:02:05;;;;;;;12.82;6.57;;;31.20;35.80;;;;;;6315320;28;20040;-80
2021/07/23 10:05:10;;;;;;;14.85;6.88;;;31.20;36.00;;;;;;6332224;28;20426;-81
2021/07/23 10:08:20;;;;;;;16.45;7.18;;;31.30;36.00;;;;;;6331948;28;20035;-80
2021/07/23 10:11:21;;;;;;;14.25;6.93;;;31.40;36.00;;;;;;6327536;28;20471;-80
2021/07/23 10:14:29;;;;;;;13.15;6.20;;;31.50;36.20;;;;;;6331036;28;20027;-81
2021/07/23 10:17:32;;;;;;;17.42;6.70;;;31.50;36.40;;;;;;6331215;28;20123;-80
2021/07/23 10:20:33;;;;;;;19.65;7.00;;;31.60;36.70;;;;;;6350463;28;20036;-81
2021/07/23 10:23:38;;;;;;;17.58;7.13;;;31.70;37.00;;;;;;6332585;28;20028;-80
2021/07/23 10:26:39;;;;;;;26.23;10.70;;;31.60;37.20;;;;;;6349747;28;20494;-80
2021/07/23 10:29:45;;;;;;;15.30;7.90;;;31.60;37.00;;;;;;6348798;28;20047;-81
2021/07/23 10:32:46;;;;;;;21.60;7.72;;;31.70;36.70;;;;;;6336662;28;20031;-81
2021/07/23 10:35:47;;;;;;;15.25;7.40;;;31.80;35.80;;;;;;6349264;28;20039;-80
2021/07/23 10:39:06;;;;;;;15.65;7.70;;;31.90;35.30;;;;;;6349019;28;20027;-80
2021/07/23 10:42:25;;;;;;;14.82;6.97;;;31.90;35.10;;;;;;6348045;28;20027;-80
2021/07/23 10:45:41;;;;;;;15.52;6.75;;;32.00;34.50;;;;;;6349649;28;20069;-80
2021/07/23 10:48:47;;;;;;;15.30;6.60;;;32.10;33.90;;;;;;6330096;28;20079;-80
2021/07/23 10:51:52;;;;;;;13.73;7.10;;;32.20;34.00;;;;;;6348155;28;20416;-79
2021/07/23 10:55:11;;;;;;;14.82;8.60;;;32.30;34.10;;;;;;6331357;28;20563;-80
2021/07/23 10:58:12;;;;;;;19.55;7.88;;;32.40;34.30;;;;;;6310346;28;20024;-81
2021/07/23 11:01:13;;;;;;;18.15;7.15;;;32.60;34.30;;;;;;6314128;28;20481;-81
2021/07/23 11:04:23;;;;;;;14.20;6.20;;;32.70;34.40;;;;;;6328560;28;20472;-80
2021/07/23 11:07:25;;;;;;;16.38;8.20;;;32.90;34.30;;;;;;6314016;28;20111;-80
2021/07/23 11:10:27;;;;;;;16.52;6.97;;;33.60;33.40;;;;;;6330222;28;20108;-79
2021/07/23 11:13:28;;;;;;;14.20;7.07;;;34.80;32.10;;;;;;6313830;28;20102;-80
2021/07/23 11:16:29;;;;;;;17.08;7.25;;;35.80;30.80;;;;;;6348213;28;20031;-81
2021/07/23 11:19:30;;;;;;;13.85;7.03;;;36.70;29.70;;;;;;6350769;28;20031;-81
2021/07/23 11:22:33;;;;;;;13.50;6.03;;;37.30;28.90;;;;;;6339615;28;20042;-79
2021/07/23 11:25:36;;;;;;;13.30;6.97;;;37.70;28.40;;;;;;6340216;28;20064;-79
2021/07/23 11:28:49;;;;;;;13.68;6.60;;;38.20;28.00;;;;;;6332858;28;20096;-79
2021/07/23 11:31:50;;;;;;;14.10;6.75;;;38.70;27.40;;;;;;6314727;28;20131;-79
2021/07/23 11:35:17;;;;;;;21.73;7.50;;;38.90;27.00;;;;;;6346844;28;20035;-79
2021/07/23 11:38:18;;;;;;;11.05;6.53;;;39.10;26.80;;;;;;6324069;28;20032;-78
2021/07/23 11:41:21;;;;;;;15.70;6.70;;;39.40;26.80;;;;;;6330679;28;20378;-80
2021/07/23 11:44:22;;;;;;;15.27;6.60;;;39.70;26.60;;;;;;6346485;28;20104;-78
2021/07/23 11:47:44;;;;;;;14.73;6.78;;;39.90;26.40;;;;;;6349042;28;20142;-79
2021/07/23 11:50:57;;;;;;;16.23;6.82;;;39.90;26.00;;;;;;6315196;28;20172;-79
2021/07/23 11:53:58;;;;;;;13.30;6.57;;;39.80;26.30;;;;;;6302988;28;20130;-78
2021/07/23 11:57:02;;;;;;;16.55;6.60;;;40.00;26.20;;;;;;6309517;28;20028;-79
2021/07/23 12:00:05;;;;;;;17.98;7.07;;;40.20;26.10;;;;;;6308803;28;20031;-81
2021/07/23 12:03:25;;;;;;;21.73;7.32;;;40.40;25.90;;;;;;6310949;28;20050;-78
2021/07/23 12:06:27;;;;;;;13.82;6.18;;;40.60;25.70;;;;;;6306121;28;20040;-79
2021/07/23 12:09:28;;;;;;;14.75;6.85;;;40.60;25.60;;;;;;6321420;28;20032;-79
2021/07/23 12:12:29;;;;;;;12.85;6.38;;;40.60;25.60;;;;;;6342119;28;20068;-78
2021/07/23 12:15:37;;;;;;;17.83;6.97;;;40.70;25.70;;;;;;6339219;28;20032;-78
2021/07/23 12:18:39;;;;;;;17.95;6.82;;;40.90;25.60;;;;;;6296479;28;20353;-78
2021/07/23 12:21:40;;;;;;;13.70;6.40;;;41.10;25.40;;;;;;6312134;28;20504;-77
2021/07/23 12:24:42;;;;;;;11.38;7.18;;;41.20;25.40;;;;;;6334099;28;20414;-79
2021/07/23 12:27:43;;;;;;;17.48;6.70;;;41.30;25.30;;;;;;6336803;28;20456;-80
2021/07/23 12:30:46;;;;;;;14.95;6.35;;;41.50;25.20;;;;;;6343031;28;20043;-78
2021/07/23 12:34:19;;;;;;;12.18;6.85;;;41.60;25.00;;;;;;6327015;28;20039;-79
2021/07/23 12:37:21;;;;;;;12.95;7.03;;;41.80;24.70;;;;;;6322211;28;20043;-81
2021/07/23 12:40:42;;;;;;;13.57;7.18;;;41.80;24.60;;;;;;6305907;28;20083;-81
2021/07/23 12:44:06;;;;;;;16.92;7.38;;;41.90;24.80;;;;;;6313003;28;20028;-81
2021/07/23 12:47:18;;;;;;;17.02;7.40;;;41.90;24.60;;;;;;6324784;28;20110;-83
2021/07/23 12:50:19;;;;;;;12.13;7.07;;;42.00;24.40;;;;;;6323724;28;20043;-81
2021/07/23 12:53:25;;;;;;;12.13;7.05;;;42.20;24.20;;;;;;6344022;28;20096;-80
2021/07/23 12:56:31;;;;;;;11.70;6.53;;;42.50;24.00;;;;;;6296852;28;20395;-80
2021/07/23 12:59:32;;;;;;;11.75;6.38;;;43.10;23.50;;;;;;6291219;28;20540;-81
2021/07/23 13:02:33;;;;;;;14.57;6.97;;;43.40;23.00;;;;;;6306504;28;20491;-79
2021/07/23 13:05:34;;;;;;;15.18;7.07;;;43.70;22.70;;;;;;6325617;28;20044;-79
2021/07/23 13:08:38;;;;;;;12.23;6.35;;;44.00;22.40;;;;;;6323030;28;20043;-80
2021/07/23 13:11:39;;;;;;;15.55;7.00;;;44.20;22.40;;;;;;6320740;28;20031;-80
2021/07/23 13:14:41;;;;;;;18.75;7.05;;;44.50;22.10;;;;;;6339700;28;20043;-81
2021/07/23 13:17:42;;;;;;;14.40;7.18;;;44.90;21.70;;;;;;6305242;28;20036;-81
2021/07/23 13:20:44;;;;;;;18.67;6.90;;;45.20;21.50;;;;;;6321988;28;20032;-81
2021/07/23 13:23:45;;;;;;;12.88;6.97;;;45.40;21.40;;;;;;6331636;28;20032;-82
2021/07/23 13:26:46;;;;;;;14.38;7.13;;;45.80;21.20;;;;;;6324171;28;20050;-84
2021/07/23 13:29:48;;;;;;;18.20;7.50;;;46.20;20.80;;;;;;6347454;28;20036;-83
2021/07/23 13:32:49;;;;;;;12.95;6.78;;;46.60;20.50;;;;;;6328975;28;20045;-82
2021/07/23 13:35:56;;;;;;;14.00;7.32;;;46.70;20.40;;;;;;6313144;28;20521;-81
2021/07/23 13:39:13;;;;;;;11.95;6.88;;;46.70;20.30;;;;;;6347739;28;20097;-81
2021/07/23 13:42:18;;;;;;;11.48;6.53;;;46.60;20.50;;;;;;6320718;28;20084;-80
2021/07/23 13:45:19;;;;;;;11.82;6.93;;;46.70;20.50;;;;;;6345829;28;20184;-87
2021/07/23 13:48:22;;;;;;;16.85;8.02;;;46.30;20.70;;;;;;6307716;28;20040;-81
2021/07/23 13:51:23;;;;;;;14.10;7.47;;;46.30;20.90;;;;;;6340041;28;20078;-83
2021/07/23 13:54:24;;;;;;;16.88;7.63;;;45.60;21.20;;;;;;6328121;28;20046;-82
2021/07/23 13:57:26;;;;;;;17.08;7.28;;;44.70;21.90;;;;;;6307288;28;20043;-79
2021/07/23 14:00:27;;;;;;;14.48;7.35;;;43.90;22.50;;;;;;6342642;28;20092;-81
2021/07/23 14:03:29;;;;;;;19.05;7.30;;;43.60;22.90;;;;;;6328051;28;20031;-80
2021/07/23 14:06:30;;;;;;;18.20;7.00;;;43.00;23.50;;;;;;6306025;28;20105;-80
2021/07/23 14:09:32;;;;;;;16.73;7.35;;;42.00;24.30;;;;;;6320392;28;20028;-81
2021/07/23 14:12:34;;;;;;;16.92;7.28;;;41.30;25.10;;;;;;6326925;28;20100;-82
2021/07/23 14:15:35;;;;;;;13.77;7.25;;;40.80;25.60;;;;;;6344174;28;20040;-79
2021/07/23 14:18:36;;;;;;;11.93;6.80;;;41.40;25.20;;;;;;6311406;28;20126;-78
2021/07/23 14:21:37;;;;;;;18.45;7.80;;;42.10;24.60;;;;;;6343831;28;20035;-78
2021/07/23 14:24:38;;;;;;;22.55;7.82;;;42.20;24.70;;;;;;6308296;28;20416;-76
2021/07/23 14:27:41;;;;;;;13.00;7.28;;;41.90;24.70;;;;;;6324926;28;20054;-76
2021/07/23 14:30:42;;;;;;;14.38;7.82;;;41.50;25.30;;;;;;6327369;28;20039;-77
2021/07/23 14:33:44;;;;;;;12.98;7.35;;;41.60;25.20;;;;;;6309351;28;20047;-77
2021/07/23 14:36:45;;;;;;;12.95;7.93;;;41.60;25.30;;;;;;6310781;28;20497;-76
2021/07/23 14:39:46;;;;;;;12.55;7.38;;;41.40;25.30;;;;;;6325570;28;20035;-76
2021/07/23 14:42:47;;;;;;;17.15;7.97;;;40.80;25.80;;;;;;6328555;28;20028;-76
2021/07/23 14:45:48;;;;;;;21.10;7.57;;;40.30;26.50;;;;;;6312142;28;20066;-77
2021/07/23 14:48:49;;;;;;;14.05;6.75;;;40.60;26.30;;;;;;6348012;28;20031;-77
2021/07/23 14:51:51;;;;;;;14.48;8.10;;;41.20;26.30;;;;;;6329585;28;20414;-77
2021/07/23 14:54:52;;;;;;;13.65;6.97;;;42.20;25.70;;;;;;6347432;28;20050;-77
2021/07/23 14:57:54;;;;;;;14.70;7.28;;;43.40;24.30;;;;;;6343448;28;20106;-76
2021/07/23 15:00:56;;;;;;;15.60;7.53;;;44.20;23.60;;;;;;6341275;28;20544;-76
2021/07/23 15:03:57;;;;;;;13.75;7.60;;;44.70;23.10;;;;;;6326940;28;20092;-78
2021/07/23 15:06:58;;;;;;;14.90;7.65;;;44.90;22.70;;;;;;6310593;28;20035;-78
2021/07/23 15:09:59;;;;;;;12.10;6.75;;;44.30;23.00;;;;;;6346039;28;20352;-78
2021/07/23 15:13:00;;;;;;;17.77;7.28;;;43.60;23.60;;;;;;6328046;28;20020;-78
2021/07/23 15:16:02;;;;;;;16.80;7.85;;;42.90;24.30;;;;;;6340899;28;20099;-77
2021/07/23 15:19:10;;;;;;;12.50;7.03;;;42.30;24.90;;;;;;6327340;28;20039;-77
2021/07/23 15:22:12;;;;;;;12.80;7.20;;;41.60;25.30;;;;;;6326266;28;20028;-77
2021/07/23 15:25:16;;;;;;;15.82;7.18;;;41.10;25.70;;;;;;6327243;28;20475;-77
2021/07/23 15:28:17;;;;;;;11.82;6.75;;;41.00;25.90;;;;;;6316182;28;20050;-76
2021/07/23 15:31:18;;;;;;;12.95;7.30;;;41.70;25.40;;;;;;6357171;28;20050;-76
2021/07/23 15:34:20;;;;;;;13.00;6.18;;;42.40;24.90;;;;;;6368401;28;20037;-75
2021/07/23 15:37:24;;;;;;;12.82;7.20;;;43.10;24.40;;;;;;6360476;28;20032;-77
2021/07/23 15:40:29;;;;;;;10.65;6.80;;;43.60;24.00;;;;;;6355868;28;20093;-77
2021/07/23 15:43:30;;;;;;;13.90;7.53;;;44.00;23.60;;;;;;6309901;28;20126;-77